Time;durP1;ratioP1;P1;durP2;ratioP2;P2;SDS_P1;SDS_P2;PMS_P1;PMS_P2;Temp;Humidity;BMP_temperature;BMP_pressure;BME280_temperature;BME280_humidity;BME280_pressure;Samples;Min_cycle;Max_cycle;Signal;HPM_P1;HPM_P2
2022/03/22 00:01:17;;;;;;;37.40;18.83;;;6.20;80.10;;;;;;5066180;28;20480;-52
2022/03/22 00:03:46;;;;;;;34.63;19.13;;;6.10;80.20;;;;;;5062047;28;21178;-51
2022/03/22 00:06:13;;;;;;;33.20;17.80;;;6.10;80.10;;;;;;5066902;28;20498;-52
2022/03/22 00:08:40;;;;;;;29.33;17.30;;;6.00;79.70;;;;;;5067935;28;21085;-51
2022/03/22 00:11:07;;;;;;;40.10;19.27;;;5.90;79.90;;;;;;5065937;28;20480;-51
2022/03/22 00:13:34;;;;;;;31.33;16.90;;;5.90;80.40;;;;;;5059772;28;21090;-51
2022/03/22 00:16:01;;;;;;;27.90;18.17;;;5.90;80.30;;;;;;5063360;28;20481;-51
2022/03/22 00:18:29;;;;;;;40.10;17.50;;;5.80;80.00;;;;;;5066825;28;20488;-51
2022/03/22 00:20:57;;;;;;;31.40;17.30;;;5.70;80.40;;;;;;5064684;28;20465;-51
2022/03/22 00:23:24;;;;;;;31.60;16.60;;;5.70;80.60;;;;;;5061111;28;20682;-51
2022/03/22 00:25:51;;;;;;;33.83;15.80;;;5.70;80.50;;;;;;5066748;28;20481;-52
2022/03/22 00:28:18;;;;;;;25.90;14.93;;;5.60;80.60;;;;;;5065389;28;20988;-51
2022/03/22 00:30:45;;;;;;;25.97;15.60;;;5.50;80.10;;;;;;5060900;28;21007;-51
2022/03/22 00:33:12;;;;;;;32.37;16.33;;;5.50;80.00;;;;;;5059017;28;20488;-52
2022/03/22 00:35:42;;;;;;;34.10;16.70;;;5.40;80.40;;;;;;5068505;28;20796;-51
2022/03/22 00:38:11;;;;;;;29.07;16.93;;;5.30;81.00;;;;;;5031969;28;20474;-52
2022/03/22 00:40:38;;;;;;;27.83;16.27;;;5.00;81.90;;;;;;5033357;28;20586;-52
2022/03/22 00:43:05;;;;;;;28.70;17.00;;;4.90;82.20;;;;;;5056753;28;20492;-51
2022/03/22 00:45:33;;;;;;;27.97;14.80;;;4.90;82.40;;;;;;5059411;28;20470;-51
2022/03/22 00:48:02;;;;;;;27.43;17.27;;;4.80;81.90;;;;;;5053083;28;20497;-51
2022/03/22 00:50:33;;;;;;;31.67;16.67;;;4.70;82.70;;;;;;5057836;28;20485;-50
2022/03/22 00:53:02;;;;;;;39.07;17.07;;;4.70;83.10;;;;;;5058174;28;20539;-51
2022/03/22 00:55:29;;;;;;;25.10;15.77;;;4.70;83.10;;;;;;5057696;28;20482;-52
2022/03/22 00:57:57;;;;;;;29.70;16.00;;;;;;;;;;5060452;28;20494;-51
2022/03/22 01:00:25;;;;;;;40.87;16.53;;;4.60;82.80;;;;;;5065717;28;20484;-51
2022/03/22 01:02:53;;;;;;;41.27;16.17;;;4.60;83.90;;;;;;5057091;28;20542;-50
2022/03/22 01:05:21;;;;;;;28.93;16.23;;;4.70;83.70;;;;;;5060322;28;20476;-51
2022/03/22 01:07:50;;;;;;;36.13;16.50;;;4.70;82.90;;;;;;5061609;28;20540;-51
2022/03/22 01:10:20;;;;;;;30.47;15.30;;;4.70;82.30;;;;;;5048829;28;20481;-51
2022/03/22 01:12:49;;;;;;;29.73;16.40;;;4.70;82.50;;;;;;5054720;28;20865;-50
2022/03/22 01:15:18;;;;;;;30.27;16.17;;;4.70;82.30;;;;;;5058974;28;20578;-51
2022/03/22 01:17:45;;;;;;;29.80;16.47;;;4.60;82.40;;;;;;5064155;28;20480;-51
2022/03/22 01:20:13;;;;;;;24.03;15.53;;;4.60;82.30;;;;;;5048832;28;20697;-51
2022/03/22 01:22:42;;;;;;;31.10;16.70;;;4.60;82.20;;;;;;5056694;28;20482;-51
2022/03/22 01:25:13;;;;;;;31.00;16.30;;;4.50;82.10;;;;;;5058362;28;20475;-50
2022/03/22 01:27:42;;;;;;;33.73;16.60;;;4.50;82.00;;;;;;5061469;28;20544;-50
2022/03/22 01:30:12;;;;;;;33.13;16.53;;;4.50;81.40;;;;;;5058935;28;20575;-50
2022/03/22 01:32:39;;;;;;;38.30;16.40;;;4.50;81.80;;;;;;5060822;28;20481;-50
2022/03/22 01:35:09;;;;;;;34.00;15.50;;;4.50;81.40;;;;;;5057853;28;20500;-50
2022/03/22 01:37:36;;;;;;;29.30;15.40;;;4.40;81.00;;;;;;5061198;28;20493;-50
2022/03/22 01:40:04;;;;;;;36.17;16.47;;;;;;;;;;5059696;28;21011;-50
2022/03/22 01:42:31;;;;;;;30.53;16.20;;;;;;;;;;5066156;28;20486;-50
2022/03/22 01:44:59;;;;;;;29.67;15.57;;;4.40;81.80;;;;;;5057968;28;20848;-50
2022/03/22 01:47:26;;;;;;;33.87;16.00;;;4.30;81.40;;;;;;5061584;28;20497;-50
2022/03/22 01:49:53;;;;;;;29.67;16.80;;;4.30;81.90;;;;;;5059132;28;20497;-50
2022/03/22 01:52:23;;;;;;;31.03;17.00;;;4.30;82.10;;;;;;5060292;28;20473;-50
2022/03/22 01:54:51;;;;;;;35.43;15.70;;;4.30;81.90;;;;;;5057042;28;20480;-49
2022/03/22 01:57:18;;;;;;;34.57;16.97;;;;;;;;;;5049515;28;20474;-50
2022/03/22 01:59:45;;;;;;;30.43;16.33;;;4.30;81.30;;;;;;5058064;28;20846;-50
2022/03/22 02:07:45;;;;;;;34.37;17.90;;;4.20;81.30;;;;;;5061300;28;20488;-49
2022/03/22 02:10:12;;;;;;;28.50;15.40;;;4.10;81.40;;;;;;5049435;28;20463;-50
2022/03/22 02:12:40;;;;;;;25.20;15.30;;;4.00;82.00;;;;;;5058393;28;20485;-49
2022/03/22 02:15:08;;;;;;;26.50;15.67;;;4.00;81.50;;;;;;5056510;28;20476;-49
2022/03/22 02:17:36;;;;;;;20.20;14.77;;;4.00;81.60;;;;;;5066773;28;20756;-49
2022/03/22 02:20:03;;;;;;;25.83;16.47;;;3.90;81.70;;;;;;5057960;28;20830;-49
2022/03/22 02:22:34;;;;;;;32.97;18.23;;;3.90;81.50;;;;;;5060721;28;20477;-49
2022/03/22 02:25:04;;;;;;;27.00;15.60;;;3.90;81.30;;;;;;5056805;28;20506;-49
2022/03/22 02:27:34;;;;;;;35.50;16.83;;;3.90;81.40;;;;;;5060705;28;22226;-49
2022/03/22 02:30:01;;;;;;;27.07;17.80;;;3.90;81.40;;;;;;5059048;28;20503;-50
2022/03/22 02:32:28;;;;;;;31.23;16.47;;;3.90;81.30;;;;;;5060049;28;20856;-50
2022/03/22 02:34:54;;;;;;;32.47;16.00;;;3.80;81.10;;;;;;5057141;28;20481;-49
2022/03/22 02:37:21;;;;;;;29.80;14.80;;;3.80;81.60;;;;;;5060195;28;20468;-50
2022/03/22 02:39:48;;;;;;;35.67;15.90;;;3.80;81.80;;;;;;5060963;28;20485;-49
2022/03/22 02:42:16;;;;;;;38.27;17.90;;;;;;;;;;5060123;28;20458;-49
2022/03/22 02:44:43;;;;;;;23.27;12.97;;;3.50;82.80;;;;;;5060142;28;20503;-49
2022/03/22 02:47:10;;;;;;;29.77;16.13;;;3.50;82.70;;;;;;5063033;28;20481;-49
2022/03/22 02:49:36;;;;;;;34.47;16.37;;;3.50;82.50;;;;;;5062431;28;20500;-49
2022/03/22 02:52:04;;;;;;;35.83;17.00;;;3.40;82.30;;;;;;5062231;28;20957;-50
2022/03/22 02:54:30;;;;;;;25.57;16.17;;;3.40;82.10;;;;;;5049986;28;20480;-49
2022/03/22 02:56:57;;;;;;;34.60;16.33;;;3.30;82.80;;;;;;5061374;28;20492;-50
2022/03/22 02:59:25;;;;;;;33.50;16.77;;;3.10;83.20;;;;;;5063388;28;20473;-49
2022/03/22 03:01:52;;;;;;;26.03;16.10;;;3.00;84.80;;;;;;5062722;28;20488;-49
2022/03/22 03:04:19;;;;;;;42.07;18.43;;;2.90;85.10;;;;;;5061637;28;20474;-54
2022/03/22 03:06:46;;;;;;;25.23;14.70;;;3.00;84.50;;;;;;5063621;28;20476;-49
2022/03/22 03:09:13;;;;;;;29.93;16.40;;;3.00;84.00;;;;;;5054326;28;20557;-49
2022/03/22 03:11:39;;;;;;;34.63;15.97;;;3.00;83.40;;;;;;5067121;28;20484;-49
2022/03/22 03:16:53;;;;;;;33.30;15.87;;;3.10;83.00;;;;;;5063128;28;20466;-49
2022/03/22 03:19:19;;;;;;;29.83;15.57;;;3.00;82.90;;;;;;5062360;28;20494;-50
2022/03/22 03:21:46;;;;;;;37.17;16.10;;;3.10;82.90;;;;;;5063695;28;20472;-49
2022/03/22 03:24:13;;;;;;;36.70;15.50;;;3.10;83.30;;;;;;5058079;28;20483;-49
2022/03/22 03:26:40;;;;;;;30.50;16.50;;;3.00;84.10;;;;;;5061298;28;20481;-49
2022/03/22 03:29:09;;;;;;;35.40;17.53;;;2.90;84.80;;;;;;5062516;28;20489;-48
2022/03/22 03:31:35;;;;;;;51.30;18.40;;;2.90;84.90;;;;;;5062941;28;20490;-49
2022/03/22 03:34:04;;;;;;;36.60;17.20;;;2.90;84.80;;;;;;5060824;28;20497;-49
2022/03/22 03:36:31;;;;;;;27.57;16.37;;;3.00;84.10;;;;;;5062731;28;20494;-49
2022/03/22 03:38:59;;;;;;;47.43;17.77;;;3.00;83.40;;;;;;5062116;28;20512;-51
2022/03/22 03:47:08;;;;;;;22.60;13.47;;;3.00;82.10;;;;;;5047677;28;20463;-50
2022/03/22 03:49:37;;;;;;;29.83;14.50;;;3.00;82.60;;;;;;5060778;28;20500;-51
2022/03/22 03:52:05;;;;;;;30.73;16.90;;;3.00;82.30;;;;;;5062582;28;20494;-51
2022/03/22 03:54:32;;;;;;;33.13;15.70;;;3.00;82.00;;;;;;5061286;28;20477;-50
2022/03/22 03:56:59;;;;;;;26.23;13.50;;;3.00;81.90;;;;;;5057807;28;20487;-51
2022/03/22 03:59:25;;;;;;;29.67;14.83;;;2.90;81.80;;;;;;5066555;28;20476;-50
2022/03/22 04:01:53;;;;;;;38.37;16.40;;;2.90;81.80;;;;;;5061827;28;20493;-50
2022/03/22 04:04:19;;;;;;;27.27;17.07;;;2.90;82.20;;;;;;5061214;28;20881;-50
2022/03/22 04:06:48;;;;;;;27.30;15.70;;;2.90;82.40;;;;;;5062684;28;20470;-49
2022/03/22 04:09:15;;;;;;;25.33;15.37;;;2.80;82.20;;;;;;5061376;28;20480;-49
2022/03/22 04:11:42;;;;;;;35.00;17.10;;;2.70;81.90;;;;;;5061183;28;20480;-49
2022/03/22 04:14:09;;;;;;;27.47;15.70;;;2.70;82.00;;;;;;5059944;28;20992;-49
2022/03/22 04:16:37;;;;;;;27.23;14.03;;;2.60;82.00;;;;;;5068064;28;20489;-49
2022/03/22 04:19:04;;;;;;;30.13;16.10;;;2.50;82.20;;;;;;5061563;28;20505;-50
2022/03/22 04:21:31;;;;;;;27.13;14.70;;;2.50;82.40;;;;;;5050642;28;20487;-49
2022/03/22 04:23:59;;;;;;;23.37;14.67;;;2.50;82.10;;;;;;5060212;28;20484;-51
2022/03/22 04:26:26;;;;;;;26.00;14.20;;;2.50;82.40;;;;;;5060885;28;20467;-50
2022/03/22 04:34:22;;;;;;;26.50;14.73;;;;;;;;;;5049283;28;20484;-50
2022/03/22 04:36:56;;;;;;;35.63;15.87;;;2.50;82.50;;;;;;5062864;28;20886;-49
2022/03/22 04:39:25;;;;;;;27.17;16.97;;;;;;;;;;5061356;28;20520;-49
2022/03/22 04:41:52;;;;;;;28.30;14.60;;;2.50;81.90;;;;;;5061427;28;20482;-49
2022/03/22 04:44:19;;;;;;;23.93;14.33;;;2.50;81.80;;;;;;5060561;28;20487;-49
2022/03/22 04:46:46;;;;;;;32.60;15.30;;;2.50;82.00;;;;;;5061537;28;20481;-49
2022/03/22 04:49:13;;;;;;;27.23;15.70;;;2.40;81.80;;;;;;5059547;28;20482;-48
2022/03/22 04:57:12;;;;;;;30.67;16.13;;;2.30;82.10;;;;;;5057655;28;20552;-49
2022/03/22 04:59:39;;;;;;;25.37;15.00;;;2.30;82.40;;;;;;5060953;28;20480;-49
2022/03/22 05:02:06;;;;;;;31.70;15.47;;;2.20;81.80;;;;;;5057245;28;21020;-49
2022/03/22 05:04:33;;;;;;;31.27;16.10;;;2.10;81.50;;;;;;5060242;28;20476;-49
2022/03/22 05:06:59;;;;;;;30.43;15.10;;;1.90;81.90;;;;;;5059466;28;20482;-49
2022/03/22 05:09:29;;;;;;;26.57;14.43;;;1.90;82.20;;;;;;5060511;28;20476;-48
2022/03/22 05:11:56;;;;;;;34.57;17.07;;;1.80;82.30;;;;;;5058841;28;20576;-49
2022/03/22 05:14:23;;;;;;;42.57;15.17;;;1.70;83.10;;;;;;5063962;28;20472;-49
2022/03/22 05:16:50;;;;;;;30.90;16.00;;;;;;;;;;5063323;28;20479;-49
2022/03/22 05:19:18;;;;;;;31.40;15.47;;;1.70;84.30;;;;;;5060378;28;20717;-49
2022/03/22 05:21:45;;;;;;;40.27;16.37;;;1.70;83.70;;;;;;5052156;28;20482;-49
2022/03/22 05:24:12;;;;;;;25.27;15.67;;;1.80;83.30;;;;;;5058382;28;20784;-49
2022/03/22 05:26:41;;;;;;;27.87;14.23;;;1.90;82.70;;;;;;5060538;28;21060;-49
2022/03/22 05:29:08;;;;;;;55.27;17.37;;;1.90;82.80;;;;;;5059276;28;20484;-49
2022/03/22 05:31:35;;;;;;;26.77;14.60;;;1.90;82.40;;;;;;5059940;28;20480;-49
2022/03/22 05:34:03;;;;;;;28.20;15.67;;;1.90;82.40;;;;;;5059188;28;20476;-50
2022/03/22 05:36:30;;;;;;;35.00;14.53;;;2.00;82.60;;;;;;5060881;28;20507;-49
2022/03/22 05:38:57;;;;;;;28.37;15.50;;;2.00;82.60;;;;;;5058757;28;20497;-49
2022/03/22 05:41:24;;;;;;;31.87;15.30;;;;;;;;;;5060240;28;20495;-49
2022/03/22 05:43:53;;;;;;;29.47;14.73;;;1.80;84.30;;;;;;5033877;28;21432;-49
2022/03/22 05:46:19;;;;;;;32.70;15.90;;;1.80;83.60;;;;;;5058599;28;20487;-49
2022/03/22 05:48:48;;;;;;;21.93;12.27;;;1.70;82.80;;;;;;5060241;28;20470;-49
2022/03/22 05:51:16;;;;;;;36.57;16.77;;;1.70;82.40;;;;;;5056556;28;20472;-49
2022/03/22 05:53:44;;;;;;;32.13;15.73;;;1.50;82.30;;;;;;5058883;28;20487;-49
2022/03/22 05:56:11;;;;;;;23.63;14.53;;;;;;;;;;5058122;28;20505;-49
2022/03/22 05:58:38;;;;;;;34.50;16.10;;;1.60;83.00;;;;;;5063896;28;21257;-49
2022/03/22 06:01:07;;;;;;;27.43;15.07;;;1.60;82.80;;;;;;5059759;28;20491;-49
2022/03/22 06:03:34;;;;;;;31.53;15.13;;;1.70;82.60;;;;;;5044389;28;20486;-49
2022/03/22 06:06:01;;;;;;;33.97;14.80;;;1.70;82.60;;;;;;5066685;28;20481;-49
2022/03/22 06:08:29;;;;;;;34.83;15.87;;;1.70;83.30;;;;;;5060657;28;20470;-49
2022/03/22 06:10:56;;;;;;;28.00;15.90;;;1.70;83.60;;;;;;5059088;28;20477;-49
2022/03/22 06:13:23;;;;;;;35.97;16.20;;;1.80;84.00;;;;;;5059101;28;20494;-49
2022/03/22 06:15:50;;;;;;;35.63;15.70;;;1.80;83.70;;;;;;5060465;28;20486;-49
2022/03/22 06:18:18;;;;;;;30.53;15.13;;;1.90;83.70;;;;;;5061533;28;20992;-49
2022/03/22 06:20:45;;;;;;;33.13;16.50;;;1.70;83.80;;;;;;5063333;28;20986;-49
2022/03/22 06:23:14;;;;;;;44.40;17.83;;;1.60;84.00;;;;;;5062899;28;20484;-49
2022/03/22 06:25:42;;;;;;;34.93;18.10;;;;;;;;;;5063433;28;20476;-49
2022/03/22 06:28:10;;;;;;;30.83;17.87;;;1.40;86.20;;;;;;5063250;28;20484;-49
2022/03/22 06:30:37;;;;;;;36.63;16.50;;;1.20;86.80;;;;;;5064486;28;21423;-49
2022/03/22 06:33:10;;;;;;;39.30;19.70;;;1.30;87.90;;;;;;5060584;28;20647;-49
2022/03/22 06:35:38;;;;;;;43.60;22.43;;;2.00;89.70;;;;;;5059907;28;20900;-49
2022/03/22 06:38:05;;;;;;;33.20;21.03;;;2.90;88.10;;;;;;5052503;28;20494;-49
2022/03/22 06:40:34;;;;;;;57.37;19.77;;;4.00;86.80;;;;;;5063237;28;20479;-50
2022/03/22 06:43:02;;;;;;;26.50;16.33;;;5.10;84.60;;;;;;5061697;28;20616;-50
2022/03/22 06:45:29;;;;;;;32.73;18.10;;;6.10;81.00;;;;;;5063685;28;20480;-50
2022/03/22 06:47:56;;;;;;;34.80;19.43;;;7.20;80.00;;;;;;5063458;28;20479;-49
2022/03/22 06:50:24;;;;;;;38.90;17.40;;;8.00;77.20;;;;;;5062645;28;21067;-50
2022/03/22 06:52:53;;;;;;;39.90;17.60;;;8.80;76.00;;;;;;5060925;28;20519;-50
2022/03/22 06:55:22;;;;;;;35.50;17.60;;;9.50;73.90;;;;;;5062572;28;20495;-51
2022/03/22 06:57:51;;;;;;;27.30;17.43;;;10.40;72.30;;;;;;5063303;28;20485;-50
2022/03/22 07:00:18;;;;;;;34.57;18.10;;;;;;;;;;5061014;28;20503;-50
2022/03/22 07:02:46;;;;;;;35.80;19.07;;;;;;;;;;5062629;28;20495;-50
2022/03/22 07:05:13;;;;;;;30.87;19.63;;;11.40;68.80;;;;;;5062715;28;21098;-50
2022/03/22 07:07:40;;;;;;;28.67;19.70;;;;;;;;;;5062390;28;20476;-50
2022/03/22 07:10:11;;;;;;;27.40;18.27;;;13.10;69.00;;;;;;5060141;28;20493;-50
2022/03/22 07:12:48;;;;;;;28.20;18.17;;;14.10;67.10;;;;;;5053176;28;20488;-50
2022/03/22 07:15:15;;;;;;;37.23;20.10;;;;;;;;;;5063995;28;20492;-50
2022/03/22 07:17:42;;;;;;;27.17;19.07;;;15.70;65.00;;;;;;5067562;28;20487;-50
2022/03/22 07:20:10;;;;;;;24.40;18.90;;;16.30;64.30;;;;;;5063876;28;20492;-51
2022/03/22 07:22:36;;;;;;;31.83;19.23;;;16.90;64.10;;;;;;5061229;28;21151;-50
2022/03/22 07:25:04;;;;;;;27.67;18.23;;;17.30;61.80;;;;;;5059496;28;20463;-51
2022/03/22 07:27:32;;;;;;;28.57;18.60;;;17.90;62.20;;;;;;5063408;28;20472;-51
2022/03/22 07:30:00;;;;;;;30.30;19.17;;;18.50;62.90;;;;;;5062098;28;20847;-50
2022/03/22 07:32:26;;;;;;;32.80;20.33;;;18.80;60.90;;;;;;5063182;28;20475;-51
2022/03/22 07:34:53;;;;;;;25.30;18.97;;;19.10;61.20;;;;;;5059911;28;20473;-50
2022/03/22 07:37:20;;;;;;;25.63;19.20;;;19.30;60.90;;;;;;5062391;28;20482;-51
2022/03/22 07:39:47;;;;;;;27.13;18.50;;;19.60;61.00;;;;;;5062344;28;20991;-51
2022/03/22 07:42:14;;;;;;;25.03;19.47;;;19.80;62.20;;;;;;5061631;28;20486;-51
2022/03/22 07:44:42;;;;;;;29.83;20.40;;;19.80;60.10;;;;;;5061045;28;20490;-51
2022/03/22 07:47:09;;;;;;;28.20;19.07;;;19.80;60.70;;;;;;5061487;28;20486;-51
2022/03/22 07:55:10;;;;;;;30.43;19.30;;;19.50;60.30;;;;;;5015989;28;20532;-52
2022/03/22 07:57:36;;;;;;;31.17;19.10;;;19.40;61.30;;;;;;5062858;28;20481;-52
2022/03/22 08:00:06;;;;;;;31.13;18.70;;;19.30;60.60;;;;;;5060644;28;20562;-52
2022/03/22 08:02:36;;;;;;;30.00;19.07;;;19.10;60.60;;;;;;5060553;28;20471;-53
2022/03/22 08:05:05;;;;;;;25.37;18.33;;;19.00;60.10;;;;;;5061718;28;20475;-52
2022/03/22 08:07:32;;;;;;;29.53;18.80;;;18.80;60.40;;;;;;5035580;28;20621;-51
2022/03/22 08:09:59;;;;;;;24.00;19.27;;;18.70;62.20;;;;;;5058810;28;21314;-51
2022/03/22 08:12:26;;;;;;;34.53;18.60;;;18.60;61.10;;;;;;5050936;28;20474;-51
2022/03/22 08:14:53;;;;;;;23.90;17.17;;;;;;;;;;5057498;28;20486;-51
2022/03/22 08:17:21;;;;;;;31.00;19.33;;;18.40;60.10;;;;;;5064108;28;20853;-51
2022/03/22 08:19:48;;;;;;;28.00;17.73;;;18.20;59.30;;;;;;5057691;28;20906;-52
2022/03/22 08:22:14;;;;;;;27.03;19.67;;;18.00;58.00;;;;;;5067062;28;20482;-52
2022/03/22 08:24:41;;;;;;;26.20;18.60;;;17.90;59.40;;;;;;5064188;28;20473;-51
2022/03/22 08:27:08;;;;;;;31.43;19.47;;;17.70;58.90;;;;;;5063469;28;20486;-51
2022/03/22 08:29:35;;;;;;;28.00;19.20;;;17.50;59.40;;;;;;5054221;28;20477;-52
2022/03/22 08:32:01;;;;;;;36.13;21.97;;;17.40;58.40;;;;;;5061815;28;20505;-53
2022/03/22 08:34:30;;;;;;;27.07;18.47;;;17.40;60.00;;;;;;5059054;28;21086;-52
2022/03/22 08:36:56;;;;;;;26.37;19.13;;;17.40;60.10;;;;;;5065341;28;20474;-51
2022/03/22 08:39:23;;;;;;;26.03;18.20;;;17.40;60.60;;;;;;5064100;28;20482;-51
2022/03/22 08:41:52;;;;;;;26.50;17.77;;;17.40;60.10;;;;;;5060300;28;20851;-52
2022/03/22 08:44:20;;;;;;;24.90;18.63;;;17.50;61.30;;;;;;5051876;28;20487;-52
2022/03/22 08:46:50;;;;;;;37.10;20.17;;;17.60;61.70;;;;;;5063880;28;20478;-52
2022/03/22 08:49:17;;;;;;;27.17;19.40;;;17.80;62.50;;;;;;5062763;28;20477;-52
2022/03/22 08:51:49;;;;;;;26.57;19.30;;;18.00;62.20;;;;;;5062665;28;21002;-52
2022/03/22 08:54:17;;;;;;;26.67;18.33;;;18.10;58.60;;;;;;5039593;28;20483;-51
2022/03/22 08:56:43;;;;;;;27.73;19.33;;;18.20;60.80;;;;;;5063798;28;20576;-52
2022/03/22 08:59:10;;;;;;;25.73;18.60;;;18.30;58.30;;;;;;5053120;28;20485;-52
2022/03/22 09:01:37;;;;;;;32.53;21.57;;;;;;;;;;5064820;28;20487;-53
2022/03/22 09:06:49;;;;;;;26.47;18.77;;;18.60;57.10;;;;;;5049325;28;20535;-52
2022/03/22 09:09:16;;;;;;;24.13;18.20;;;18.60;56.10;;;;;;5055703;28;20489;-52
2022/03/22 09:11:42;;;;;;;26.67;19.10;;;18.60;56.40;;;;;;5064749;28;20474;-53
2022/03/22 09:14:09;;;;;;;26.17;17.40;;;;;;;;;;5061105;28;20493;-53
2022/03/22 09:16:37;;;;;;;27.50;20.20;;;18.80;56.90;;;;;;5066657;28;20494;-53
2022/03/22 09:19:04;;;;;;;27.17;18.60;;;18.90;58.30;;;;;;5046990;28;20494;-53
2022/03/22 09:21:31;;;;;;;27.13;19.83;;;19.00;57.20;;;;;;5062264;28;20466;-52
2022/03/22 09:23:59;;;;;;;31.30;19.80;;;19.00;57.40;;;;;;5061141;28;20482;-52
2022/03/22 09:26:26;;;;;;;24.80;18.00;;;19.10;56.80;;;;;;5064167;28;20851;-52
2022/03/22 09:28:53;;;;;;;25.43;18.80;;;19.20;57.10;;;;;;5064710;28;20474;-52
2022/03/22 09:31:22;;;;;;;29.20;18.90;;;19.30;57.90;;;;;;5060698;28;20863;-52
2022/03/22 09:33:49;;;;;;;24.43;18.20;;;19.50;58.60;;;;;;5062947;28;20482;-52
2022/03/22 09:36:16;;;;;;;31.00;20.90;;;19.60;57.50;;;;;;5063941;28;20486;-52
2022/03/22 09:38:44;;;;;;;28.37;19.40;;;19.90;57.90;;;;;;5061139;28;20478;-52
2022/03/22 09:41:14;;;;;;;28.60;19.07;;;19.80;56.20;;;;;;5063769;28;20489;-53
2022/03/22 09:43:46;;;;;;;25.70;19.33;;;19.80;55.70;;;;;;5061698;28;21163;-52
2022/03/22 09:46:17;;;;;;;30.33;19.07;;;19.80;57.00;;;;;;5065474;28;20833;-52
2022/03/22 09:48:44;;;;;;;28.20;19.33;;;19.90;56.60;;;;;;5052433;28;20474;-52
2022/03/22 09:53:55;;;;;;;29.20;19.67;;;19.90;57.20;;;;;;5062922;28;20508;-52
2022/03/22 09:56:26;;;;;;;25.90;18.00;;;;;;;;;;5065637;28;21248;-52
2022/03/22 09:58:52;;;;;;;25.83;18.70;;;20.10;56.50;;;;;;5070223;28;20470;-53
2022/03/22 10:01:21;;;;;;;25.63;18.50;;;20.00;55.00;;;;;;5066885;28;20477;-53
2022/03/22 10:03:56;;;;;;;24.30;18.20;;;19.40;54.20;;;;;;5063651;28;21080;-53
2022/03/22 10:06:23;;;;;;;27.17;19.60;;;19.20;56.60;;;;;;5067268;28;20896;-53
2022/03/22 10:08:50;;;;;;;30.13;18.20;;;;;;;;;;5068135;28;20473;-53
2022/03/22 10:11:18;;;;;;;27.43;18.50;;;19.00;53.90;;;;;;5057596;28;21288;-53
2022/03/22 10:13:54;;;;;;;29.27;19.47;;;18.70;51.70;;;;;;5064773;28;20508;-52
2022/03/22 10:16:21;;;;;;;24.83;19.20;;;18.90;57.10;;;;;;5064833;28;20473;-53
2022/03/22 10:18:48;;;;;;;24.30;18.73;;;19.20;54.30;;;;;;5056031;28;20478;-53
2022/03/22 10:21:15;;;;;;;28.93;17.37;;;19.40;54.50;;;;;;5063446;28;20518;-53
2022/03/22 10:23:49;;;;;;;24.33;16.90;;;19.50;52.70;;;;;;5063498;28;20880;-53
2022/03/22 10:26:16;;;;;;;21.57;16.37;;;19.80;52.50;;;;;;5067459;28;20659;-53
2022/03/22 10:28:51;;;;;;;23.30;16.30;;;20.10;51.50;;;;;;5068462;28;20512;-53
2022/03/22 10:31:20;;;;;;;24.33;15.83;;;;;;;;;;5067217;28;21559;-53
2022/03/22 10:33:51;;;;;;;24.40;15.93;;;20.30;43.40;;;;;;5063134;28;20501;-53
2022/03/22 10:36:21;;;;;;;26.23;16.17;;;20.30;48.70;;;;;;5065191;28;20976;-53
2022/03/22 10:38:55;;;;;;;21.30;17.00;;;19.90;45.40;;;;;;5056481;28;20482;-52
2022/03/22 10:41:26;;;;;;;18.90;15.23;;;19.70;44.50;;;;;;5065207;28;20493;-52
2022/03/22 10:44:03;;;;;;;18.93;15.27;;;19.40;46.30;;;;;;5063800;28;20912;-52
2022/03/22 10:46:31;;;;;;;27.73;18.03;;;18.70;46.20;;;;;;5055554;28;21023;-52
2022/03/22 10:49:07;;;;;;;22.17;17.53;;;18.70;47.40;;;;;;5067153;28;20481;-52
2022/03/22 10:51:35;;;;;;;18.67;15.37;;;19.00;51.00;;;;;;5065542;28;20480;-52
2022/03/22 10:54:02;;;;;;;20.37;14.67;;;19.00;51.10;;;;;;5060408;28;20486;-54
2022/03/22 10:56:30;;;;;;;21.10;15.30;;;19.30;52.90;;;;;;5064987;28;20769;-53
2022/03/22 10:58:59;;;;;;;21.40;16.03;;;19.60;50.00;;;;;;5066934;28;21032;-53
2022/03/22 11:01:26;;;;;;;17.33;14.70;;;19.50;44.20;;;;;;5068268;28;20475;-52
2022/03/22 11:03:57;;;;;;;21.73;15.80;;;19.40;48.70;;;;;;5065454;28;20779;-52
2022/03/22 11:06:29;;;;;;;22.47;15.57;;;19.50;49.30;;;;;;5066553;28;20994;-52
2022/03/22 11:08:56;;;;;;;21.77;16.10;;;19.60;51.20;;;;;;5068866;28;20498;-52
2022/03/22 11:11:23;;;;;;;26.13;16.87;;;19.80;48.50;;;;;;5068582;28;20493;-52
2022/03/22 11:13:50;;;;;;;21.33;16.00;;;19.30;45.00;;;;;;5062859;28;20478;-52
2022/03/22 11:16:19;;;;;;;25.43;16.67;;;19.10;45.50;;;;;;5063757;28;20478;-52
2022/03/22 11:18:46;;;;;;;21.27;16.80;;;18.80;46.00;;;;;;5068716;28;20486;-52
2022/03/22 11:21:19;;;;;;;25.03;16.40;;;18.70;48.90;;;;;;5068621;28;21067;-56
2022/03/22 11:23:47;;;;;;;20.53;16.37;;;18.40;48.20;;;;;;5064138;28;20473;-52
2022/03/22 11:26:17;;;;;;;29.40;18.37;;;18.00;45.20;;;;;;5069192;28;21321;-56
2022/03/22 11:28:45;;;;;;;24.27;17.83;;;17.80;47.10;;;;;;5066147;28;20564;-53
2022/03/22 11:31:14;;;;;;;22.67;14.93;;;;;;;;;;5066200;28;21097;-52
2022/03/22 11:36:36;;;;;;;24.10;16.10;;;17.70;47.00;;;;;;5067836;28;20776;-52
2022/03/22 11:39:04;;;;;;;25.47;16.10;;;18.00;52.20;;;;;;5067389;28;21000;-52
2022/03/22 11:44:19;;;;;;;23.37;17.40;;;19.00;47.20;;;;;;5053363;28;20551;-52
2022/03/22 11:46:48;;;;;;;23.30;15.97;;;19.20;49.80;;;;;;5067356;28;20481;-52
2022/03/22 11:49:21;;;;;;;28.10;17.33;;;19.80;49.50;;;;;;5066174;28;20490;-53
2022/03/22 11:52:09;;;;;;;24.60;16.47;;;20.20;51.10;;;;;;5062236;28;20487;-52
2022/03/22 11:54:37;;;;;;;25.63;16.83;;;20.60;49.30;;;;;;5059782;28;20935;-52
2022/03/22 11:57:05;;;;;;;21.90;15.83;;;21.00;52.60;;;;;;5065503;28;20482;-52
2022/03/22 11:59:41;;;;;;;22.63;15.77;;;21.50;52.90;;;;;;5066742;28;20482;-52
2022/03/22 12:02:15;;;;;;;20.17;15.17;;;22.00;54.30;;;;;;5063821;28;20555;-52
2022/03/22 12:04:43;;;;;;;20.03;16.40;;;22.10;45.90;;;;;;5036190;28;21063;-52
2022/03/22 12:07:12;;;;;;;32.77;18.33;;;21.60;45.60;;;;;;5065907;28;20489;-52
2022/03/22 12:09:41;;;;;;;19.87;16.00;;;21.10;43.40;;;;;;5067548;28;20801;-52
2022/03/22 12:12:10;;;;;;;22.67;15.80;;;20.90;46.80;;;;;;5064461;28;21063;-53
2022/03/22 12:14:38;;;;;;;60.00;20.23;;;20.70;48.60;;;;;;5061684;28;21090;-52
2022/03/22 12:17:05;;;;;;;19.23;14.80;;;20.60;44.30;;;;;;5067082;28;23346;-52
2022/03/22 12:19:34;;;;;;;21.70;14.80;;;20.20;43.50;;;;;;5059273;28;20563;-52
2022/03/22 12:22:03;;;;;;;27.20;16.73;;;20.00;44.30;;;;;;5063996;28;20485;-52
2022/03/22 12:24:33;;;;;;;21.63;16.47;;;19.70;44.40;;;;;;5049738;28;20509;-53
2022/03/22 12:27:02;;;;;;;21.10;16.67;;;19.50;45.10;;;;;;5062168;28;20459;-52
2022/03/22 12:29:29;;;;;;;20.70;16.60;;;19.70;45.40;;;;;;5065399;28;20481;-52
2022/03/22 12:32:06;;;;;;;23.70;16.80;;;19.90;45.20;;;;;;5063204;28;21002;-52
2022/03/22 12:34:35;;;;;;;23.73;16.73;;;20.30;45.80;;;;;;5063481;28;20491;-52
2022/03/22 12:37:02;;;;;;;23.33;15.63;;;20.10;44.30;;;;;;5066238;28;20481;-53
2022/03/22 12:39:29;;;;;;;19.67;15.67;;;20.10;44.20;;;;;;5064517;28;20479;-52
2022/03/22 12:41:57;;;;;;;21.70;16.47;;;20.10;44.40;;;;;;5062132;28;20478;-52
2022/03/22 12:44:25;;;;;;;23.37;15.80;;;20.30;47.40;;;;;;5048234;28;20474;-52
2022/03/22 12:46:53;;;;;;;18.67;14.77;;;20.80;47.40;;;;;;5064816;28;20498;-52
2022/03/22 12:49:21;;;;;;;21.43;15.60;;;21.10;48.40;;;;;;5065906;28;20477;-53
2022/03/22 12:51:48;;;;;;;22.03;15.20;;;21.40;47.70;;;;;;5063284;28;20488;-53
2022/03/22 12:54:17;;;;;;;18.53;15.63;;;21.80;48.50;;;;;;5059174;28;20485;-52
2022/03/22 12:56:47;;;;;;;21.30;16.00;;;21.80;49.30;;;;;;5067306;28;20834;-53
2022/03/22 12:59:20;;;;;;;18.60;13.17;;;21.70;42.50;;;;;;5065519;28;20582;-53
2022/03/22 13:01:56;;;;;;;24.20;15.90;;;21.40;44.50;;;;;;5052807;28;20472;-53
2022/03/22 13:04:26;;;;;;;18.70;14.67;;;21.00;42.00;;;;;;5043963;28;20913;-53
2022/03/22 13:06:59;;;;;;;29.90;15.20;;;20.90;44.90;;;;;;5045702;28;20612;-53
2022/03/22 13:12:12;;;;;;;24.77;13.80;;;20.70;45.70;;;;;;5064350;28;20485;-53
2022/03/22 13:17:28;;;;;;;21.53;12.00;;;20.70;43.50;;;;;;5055409;28;20516;-53
2022/03/22 13:19:55;;;;;;;32.43;14.80;;;21.00;44.80;;;;;;5065943;28;21042;-53
2022/03/22 13:22:25;;;;;;;18.23;13.53;;;21.20;47.40;;;;;;5065373;28;20475;-53
2022/03/22 13:25:03;;;;;;;25.47;14.60;;;21.60;45.50;;;;;;5062796;28;20509;-53
2022/03/22 13:27:30;;;;;;;19.70;13.03;;;21.70;45.80;;;;;;5063998;28;21044;-53
2022/03/22 13:30:00;;;;;;;19.90;13.53;;;22.30;47.80;;;;;;5065115;28;20488;-53